sensor_id;sensor_type;location;lat;lon;timestamp;P1;durP1;ratioP1;P2;durP2;ratioP2
71150;SDS011;59071;42.138;24.768;2024-01-30T00:01:16;7.50;;;3.60;;
71150;SDS011;59071;42.138;24.768;2024-01-30T00:03:42;6.93;;;3.80;;
71150;SDS011;59071;42.138;24.768;2024-01-30T00:06:07;6.40;;;3.83;;
71150;SDS011;59071;42.138;24.768;2024-01-30T00:08:33;7.13;;;4.35;;
71150;SDS011;59071;42.138;24.768;2024-01-30T00:10:59;7.70;;;4.07;;
71150;SDS011;59071;42.138;24.768;2024-01-30T00:13:24;8.07;;;4.35;;
71150;SDS011;59071;42.138;24.768;2024-01-30T00:15:50;8.82;;;4.30;;
71150;SDS011;59071;42.138;24.768;2024-01-30T00:18:15;8.13;;;4.00;;
71150;SDS011;59071;42.138;24.768;2024-01-30T00:20:41;8.88;;;4.60;;
71150;SDS011;59071;42.138;24.768;2024-01-30T00:23:07;8.82;;;4.32;;
71150;SDS011;59071;42.138;24.768;2024-01-30T00:25:33;6.63;;;4.10;;
71150;SDS011;59071;42.138;24.768;2024-01-30T00:27:58;7.68;;;4.20;;
71150;SDS011;59071;42.138;24.768;2024-01-30T00:30:24;7.38;;;3.90;;
71150;SDS011;59071;42.138;24.768;2024-01-30T00:32:49;7.60;;;4.05;;
71150;SDS011;59071;42.138;24.768;2024-01-30T00:35:15;5.60;;;3.65;;
71150;SDS011;59071;42.138;24.768;2024-01-30T00:37:40;6.90;;;3.70;;
71150;SDS011;59071;42.138;24.768;2024-01-30T00:40:05;5.70;;;3.67;;
71150;SDS011;59071;42.138;24.768;2024-01-30T00:42:31;6.03;;;3.88;;
71150;SDS011;59071;42.138;24.768;2024-01-30T00:44:57;6.57;;;3.58;;
71150;SDS011;59071;42.138;24.768;2024-01-30T00:47:23;7.25;;;3.60;;
71150;SDS011;59071;42.138;24.768;2024-01-30T00:49:48;8.55;;;4.07;;
71150;SDS011;59071;42.138;24.768;2024-01-30T00:52:14;7.85;;;3.95;;
71150;SDS011;59071;42.138;24.768;2024-01-30T00:54:40;8.27;;;4.20;;
71150;SDS011;59071;42.138;24.768;2024-01-30T00:57:06;6.43;;;4.00;;
71150;SDS011;59071;42.138;24.768;2024-01-30T00:59:31;6.55;;;3.75;;
71150;SDS011;59071;42.138;24.768;2024-01-30T01:01:57;7.75;;;4.13;;
71150;SDS011;59071;42.138;24.768;2024-01-30T01:04:22;6.38;;;3.58;;
71150;SDS011;59071;42.138;24.768;2024-01-30T01:06:47;7.43;;;3.90;;
71150;SDS011;59071;42.138;24.768;2024-01-30T01:09:13;5.63;;;3.40;;
71150;SDS011;59071;42.138;24.768;2024-01-30T01:11:38;6.90;;;4.20;;
71150;SDS011;59071;42.138;24.768;2024-01-30T01:14:04;8.00;;;4.15;;
71150;SDS011;59071;42.138;24.768;2024-01-30T01:16:30;8.13;;;4.30;;
71150;SDS011;59071;42.138;24.768;2024-01-30T01:18:55;8.20;;;3.85;;
71150;SDS011;59071;42.138;24.768;2024-01-30T01:21:21;7.38;;;3.92;;
71150;SDS011;59071;42.138;24.768;2024-01-30T01:23:46;7.63;;;3.75;;
71150;SDS011;59071;42.138;24.768;2024-01-30T01:26:11;6.47;;;3.90;;
71150;SDS011;59071;42.138;24.768;2024-01-30T01:28:37;7.55;;;3.90;;
71150;SDS011;59071;42.138;24.768;2024-01-30T01:31:04;7.13;;;4.28;;
71150;SDS011;59071;42.138;24.768;2024-01-30T01:33:30;7.43;;;4.15;;
71150;SDS011;59071;42.138;24.768;2024-01-30T01:35:58;6.57;;;4.10;;
71150;SDS011;59071;42.138;24.768;2024-01-30T01:38:23;8.38;;;4.30;;
71150;SDS011;59071;42.138;24.768;2024-01-30T01:40:49;7.30;;;4.45;;
71150;SDS011;59071;42.138;24.768;2024-01-30T01:43:14;7.43;;;4.35;;
71150;SDS011;59071;42.138;24.768;2024-01-30T01:45:39;8.48;;;4.35;;
71150;SDS011;59071;42.138;24.768;2024-01-30T01:48:05;7.40;;;4.38;;
71150;SDS011;59071;42.138;24.768;2024-01-30T01:50:31;6.75;;;4.28;;
71150;SDS011;59071;42.138;24.768;2024-01-30T01:52:57;6.78;;;4.25;;
71150;SDS011;59071;42.138;24.768;2024-01-30T01:55:23;9.32;;;5.15;;
71150;SDS011;59071;42.138;24.768;2024-01-30T01:57:52;6.90;;;3.85;;
71150;SDS011;59071;42.138;24.768;2024-01-30T02:00:18;8.15;;;4.40;;
71150;SDS011;59071;42.138;24.768;2024-01-30T02:02:45;10.63;;;5.00;;
71150;SDS011;59071;42.138;24.768;2024-01-30T02:05:11;9.80;;;5.18;;
71150;SDS011;59071;42.138;24.768;2024-01-30T02:07:37;10.25;;;5.53;;
71150;SDS011;59071;42.138;24.768;2024-01-30T02:10:03;8.98;;;5.00;;
71150;SDS011;59071;42.138;24.768;2024-01-30T02:12:29;10.32;;;5.63;;
71150;SDS011;59071;42.138;24.768;2024-01-30T02:14:55;11.07;;;5.55;;
71150;SDS011;59071;42.138;24.768;2024-01-30T02:17:20;9.88;;;4.80;;
71150;SDS011;59071;42.138;24.768;2024-01-30T02:19:46;12.00;;;5.22;;
71150;SDS011;59071;42.138;24.768;2024-01-30T02:22:11;10.30;;;5.35;;
71150;SDS011;59071;42.138;24.768;2024-01-30T02:24:37;9.50;;;5.28;;
71150;SDS011;59071;42.138;24.768;2024-01-30T02:27:03;12.05;;;5.47;;
71150;SDS011;59071;42.138;24.768;2024-01-30T02:29:28;10.27;;;4.85;;
71150;SDS011;59071;42.138;24.768;2024-01-30T02:31:54;10.68;;;5.32;;
71150;SDS011;59071;42.138;24.768;2024-01-30T02:34:19;9.70;;;5.35;;
71150;SDS011;59071;42.138;24.768;2024-01-30T02:36:45;10.38;;;5.40;;
71150;SDS011;59071;42.138;24.768;2024-01-30T02:39:10;12.30;;;5.40;;
71150;SDS011;59071;42.138;24.768;2024-01-30T02:41:36;9.90;;;5.13;;
71150;SDS011;59071;42.138;24.768;2024-01-30T02:44:04;10.88;;;5.60;;
71150;SDS011;59071;42.138;24.768;2024-01-30T02:46:29;10.48;;;5.50;;
71150;SDS011;59071;42.138;24.768;2024-01-30T02:48:55;9.75;;;5.20;;
71150;SDS011;59071;42.138;24.768;2024-01-30T02:51:20;11.05;;;5.80;;
71150;SDS011;59071;42.138;24.768;2024-01-30T02:53:46;11.40;;;6.28;;
71150;SDS011;59071;42.138;24.768;2024-01-30T02:56:11;11.52;;;5.70;;
71150;SDS011;59071;42.138;24.768;2024-01-30T02:58:38;11.38;;;5.80;;
71150;SDS011;59071;42.138;24.768;2024-01-30T03:01:05;11.95;;;5.78;;
71150;SDS011;59071;42.138;24.768;2024-01-30T03:03:30;9.40;;;5.78;;
71150;SDS011;59071;42.138;24.768;2024-01-30T03:05:56;9.35;;;5.50;;
71150;SDS011;59071;42.138;24.768;2024-01-30T03:08:21;10.90;;;5.72;;
71150;SDS011;59071;42.138;24.768;2024-01-30T03:10:46;13.45;;;6.70;;
71150;SDS011;59071;42.138;24.768;2024-01-30T03:13:12;11.10;;;5.63;;
71150;SDS011;59071;42.138;24.768;2024-01-30T03:15:37;11.13;;;6.00;;
71150;SDS011;59071;42.138;24.768;2024-01-30T03:18:02;9.88;;;5.32;;
71150;SDS011;59071;42.138;24.768;2024-01-30T03:20:31;13.40;;;6.57;;
71150;SDS011;59071;42.138;24.768;2024-01-30T03:22:57;12.38;;;6.20;;
71150;SDS011;59071;42.138;24.768;2024-01-30T03:25:22;13.13;;;6.28;;
71150;SDS011;59071;42.138;24.768;2024-01-30T03:27:48;12.68;;;6.68;;
71150;SDS011;59071;42.138;24.768;2024-01-30T03:30:14;13.43;;;6.80;;
71150;SDS011;59071;42.138;24.768;2024-01-30T03:32:39;11.85;;;6.57;;
71150;SDS011;59071;42.138;24.768;2024-01-30T03:35:04;12.00;;;6.22;;
71150;SDS011;59071;42.138;24.768;2024-01-30T03:37:30;12.57;;;6.70;;
71150;SDS011;59071;42.138;24.768;2024-01-30T03:39:56;14.85;;;6.50;;
71150;SDS011;59071;42.138;24.768;2024-01-30T03:42:22;14.07;;;6.45;;
71150;SDS011;59071;42.138;24.768;2024-01-30T03:44:47;12.68;;;7.05;;
71150;SDS011;59071;42.138;24.768;2024-01-30T03:47:13;13.70;;;6.53;;
71150;SDS011;59071;42.138;24.768;2024-01-30T03:49:38;13.02;;;7.03;;
71150;SDS011;59071;42.138;24.768;2024-01-30T03:52:03;14.63;;;7.10;;
71150;SDS011;59071;42.138;24.768;2024-01-30T03:54:29;11.43;;;6.35;;
71150;SDS011;59071;42.138;24.768;2024-01-30T03:56:54;16.33;;;7.18;;
71150;SDS011;59071;42.138;24.768;2024-01-30T03:59:19;17.70;;;7.60;;
71150;SDS011;59071;42.138;24.768;2024-01-30T04:01:49;13.13;;;6.75;;
71150;SDS011;59071;42.138;24.768;2024-01-30T04:04:17;17.15;;;7.75;;
71150;SDS011;59071;42.138;24.768;2024-01-30T04:06:43;16.33;;;7.32;;
71150;SDS011;59071;42.138;24.768;2024-01-30T04:09:09;18.40;;;8.85;;
71150;SDS011;59071;42.138;24.768;2024-01-30T04:11:34;15.18;;;7.65;;
71150;SDS011;59071;42.138;24.768;2024-01-30T04:14:00;15.55;;;7.57;;
71150;SDS011;59071;42.138;24.768;2024-01-30T04:16:25;15.32;;;7.40;;
71150;SDS011;59071;42.138;24.768;2024-01-30T04:18:51;17.02;;;7.03;;
71150;SDS011;59071;42.138;24.768;2024-01-30T04:21:17;13.57;;;7.05;;
71150;SDS011;59071;42.138;24.768;2024-01-30T04:23:43;16.55;;;7.28;;
71150;SDS011;59071;42.138;24.768;2024-01-30T04:26:08;15.35;;;7.28;;
71150;SDS011;59071;42.138;24.768;2024-01-30T04:28:33;15.20;;;7.00;;
71150;SDS011;59071;42.138;24.768;2024-01-30T04:30:59;14.05;;;6.70;;
71150;SDS011;59071;42.138;24.768;2024-01-30T04:33:24;12.13;;;6.55;;
71150;SDS011;59071;42.138;24.768;2024-01-30T04:35:50;14.30;;;6.70;;
71150;SDS011;59071;42.138;24.768;2024-01-30T04:38:15;13.77;;;6.47;;
71150;SDS011;59071;42.138;24.768;2024-01-30T04:40:40;15.90;;;7.07;;
71150;SDS011;59071;42.138;24.768;2024-01-30T04:43:06;12.15;;;6.43;;
71150;SDS011;59071;42.138;24.768;2024-01-30T04:45:31;15.10;;;7.80;;
71150;SDS011;59071;42.138;24.768;2024-01-30T04:47:56;14.90;;;7.15;;
71150;SDS011;59071;42.138;24.768;2024-01-30T04:50:22;16.15;;;7.13;;
71150;SDS011;59071;42.138;24.768;2024-01-30T04:52:48;12.68;;;6.82;;
71150;SDS011;59071;42.138;24.768;2024-01-30T04:55:13;16.20;;;7.35;;
71150;SDS011;59071;42.138;24.768;2024-01-30T04:57:39;12.73;;;6.25;;
71150;SDS011;59071;42.138;24.768;2024-01-30T05:00:04;14.65;;;7.20;;
71150;SDS011;59071;42.138;24.768;2024-01-30T05:02:30;13.82;;;6.90;;
71150;SDS011;59071;42.138;24.768;2024-01-30T05:04:56;15.52;;;6.82;;
71150;SDS011;59071;42.138;24.768;2024-01-30T05:07:21;15.13;;;8.05;;
71150;SDS011;59071;42.138;24.768;2024-01-30T05:09:47;15.07;;;7.40;;
71150;SDS011;59071;42.138;24.768;2024-01-30T05:12:12;13.98;;;7.03;;
71150;SDS011;59071;42.138;24.768;2024-01-30T05:14:38;14.50;;;6.80;;
71150;SDS011;59071;42.138;24.768;2024-01-30T05:17:03;14.75;;;7.80;;
71150;SDS011;59071;42.138;24.768;2024-01-30T05:19:29;16.20;;;9.10;;
71150;SDS011;59071;42.138;24.768;2024-01-30T05:21:54;15.80;;;7.72;;
71150;SDS011;59071;42.138;24.768;2024-01-30T05:24:19;12.75;;;7.30;;
71150;SDS011;59071;42.138;24.768;2024-01-30T05:26:45;12.35;;;6.90;;
71150;SDS011;59071;42.138;24.768;2024-01-30T05:29:10;12.45;;;6.63;;
71150;SDS011;59071;42.138;24.768;2024-01-30T05:31:36;16.20;;;7.25;;
71150;SDS011;59071;42.138;24.768;2024-01-30T05:34:01;16.10;;;8.25;;
71150;SDS011;59071;42.138;24.768;2024-01-30T05:36:26;14.27;;;7.03;;
71150;SDS011;59071;42.138;24.768;2024-01-30T05:38:52;12.93;;;7.53;;
71150;SDS011;59071;42.138;24.768;2024-01-30T05:41:17;15.70;;;7.00;;
71150;SDS011;59071;42.138;24.768;2024-01-30T05:43:43;15.55;;;7.65;;
71150;SDS011;59071;42.138;24.768;2024-01-30T05:46:09;14.23;;;7.88;;
71150;SDS011;59071;42.138;24.768;2024-01-30T05:48:34;17.80;;;8.52;;
71150;SDS011;59071;42.138;24.768;2024-01-30T05:51:00;18.63;;;8.80;;
71150;SDS011;59071;42.138;24.768;2024-01-30T05:53:26;16.23;;;8.00;;
71150;SDS011;59071;42.138;24.768;2024-01-30T05:55:51;18.67;;;8.48;;
71150;SDS011;59071;42.138;24.768;2024-01-30T05:58:17;18.15;;;8.82;;
71150;SDS011;59071;42.138;24.768;2024-01-30T06:00:42;13.93;;;7.65;;
71150;SDS011;59071;42.138;24.768;2024-01-30T06:03:08;19.40;;;8.05;;
71150;SDS011;59071;42.138;24.768;2024-01-30T06:05:33;16.92;;;8.15;;
71150;SDS011;59071;42.138;24.768;2024-01-30T06:07:58;23.65;;;10.32;;
71150;SDS011;59071;42.138;24.768;2024-01-30T06:10:23;18.33;;;9.38;;
71150;SDS011;59071;42.138;24.768;2024-01-30T06:12:49;16.77;;;8.85;;
71150;SDS011;59071;42.138;24.768;2024-01-30T06:15:14;15.98;;;8.02;;
71150;SDS011;59071;42.138;24.768;2024-01-30T06:17:40;15.50;;;7.60;;
71150;SDS011;59071;42.138;24.768;2024-01-30T06:20:05;16.33;;;8.07;;
71150;SDS011;59071;42.138;24.768;2024-01-30T06:22:31;16.80;;;8.75;;
71150;SDS011;59071;42.138;24.768;2024-01-30T06:24:56;13.65;;;7.82;;
71150;SDS011;59071;42.138;24.768;2024-01-30T06:27:22;18.23;;;7.50;;
71150;SDS011;59071;42.138;24.768;2024-01-30T06:29:47;14.70;;;7.85;;
71150;SDS011;59071;42.138;24.768;2024-01-30T06:32:12;16.33;;;8.20;;
71150;SDS011;59071;42.138;24.768;2024-01-30T06:34:38;16.95;;;8.30;;
71150;SDS011;59071;42.138;24.768;2024-01-30T06:37:05;22.98;;;8.00;;
71150;SDS011;59071;42.138;24.768;2024-01-30T06:39:30;20.13;;;8.80;;
71150;SDS011;59071;42.138;24.768;2024-01-30T06:41:56;18.95;;;8.27;;
71150;SDS011;59071;42.138;24.768;2024-01-30T06:44:21;14.02;;;8.45;;
71150;SDS011;59071;42.138;24.768;2024-01-30T06:46:46;19.08;;;9.68;;
71150;SDS011;59071;42.138;24.768;2024-01-30T06:49:12;15.80;;;8.57;;
71150;SDS011;59071;42.138;24.768;2024-01-30T06:51:37;26.83;;;10.73;;
71150;SDS011;59071;42.138;24.768;2024-01-30T06:54:02;21.88;;;11.15;;
71150;SDS011;59071;42.138;24.768;2024-01-30T06:56:28;20.05;;;9.80;;
71150;SDS011;59071;42.138;24.768;2024-01-30T06:58:53;15.50;;;9.07;;
71150;SDS011;59071;42.138;24.768;2024-01-30T07:01:19;17.25;;;9.27;;
71150;SDS011;59071;42.138;24.768;2024-01-30T07:03:44;19.13;;;9.70;;
71150;SDS011;59071;42.138;24.768;2024-01-30T07:06:10;21.98;;;10.18;;
71150;SDS011;59071;42.138;24.768;2024-01-30T07:08:38;17.25;;;8.95;;
71150;SDS011;59071;42.138;24.768;2024-01-30T07:11:04;18.83;;;8.77;;
71150;SDS011;59071;42.138;24.768;2024-01-30T07:13:31;17.95;;;8.43;;
71150;SDS011;59071;42.138;24.768;2024-01-30T07:15:56;14.32;;;8.27;;
71150;SDS011;59071;42.138;24.768;2024-01-30T07:18:21;19.23;;;9.88;;
71150;SDS011;59071;42.138;24.768;2024-01-30T07:20:47;17.23;;;9.45;;
71150;SDS011;59071;42.138;24.768;2024-01-30T07:23:13;19.10;;;9.20;;
71150;SDS011;59071;42.138;24.768;2024-01-30T07:25:41;16.98;;;8.32;;
71150;SDS011;59071;42.138;24.768;2024-01-30T07:28:07;17.67;;;9.05;;
71150;SDS011;59071;42.138;24.768;2024-01-30T07:30:36;19.75;;;9.00;;
71150;SDS011;59071;42.138;24.768;2024-01-30T07:33:01;20.50;;;9.30;;
71150;SDS011;59071;42.138;24.768;2024-01-30T07:35:27;17.85;;;9.15;;
71150;SDS011;59071;42.138;24.768;2024-01-30T07:37:52;21.88;;;9.38;;
71150;SDS011;59071;42.138;24.768;2024-01-30T07:40:18;17.63;;;8.50;;
71150;SDS011;59071;42.138;24.768;2024-01-30T07:42:43;21.95;;;9.98;;
71150;SDS011;59071;42.138;24.768;2024-01-30T07:45:09;20.15;;;9.02;;
71150;SDS011;59071;42.138;24.768;2024-01-30T07:47:34;18.33;;;7.22;;
71150;SDS011;59071;42.138;24.768;2024-01-30T07:50:00;21.83;;;9.82;;
71150;SDS011;59071;42.138;24.768;2024-01-30T07:52:25;27.75;;;9.77;;
71150;SDS011;59071;42.138;24.768;2024-01-30T07:54:51;26.70;;;11.32;;
71150;SDS011;59071;42.138;24.768;2024-01-30T07:57:16;21.90;;;10.13;;
71150;SDS011;59071;42.138;24.768;2024-01-30T07:59:43;23.02;;;9.65;;
71150;SDS011;59071;42.138;24.768;2024-01-30T08:02:12;16.95;;;7.55;;
71150;SDS011;59071;42.138;24.768;2024-01-30T08:04:38;17.50;;;7.60;;
71150;SDS011;59071;42.138;24.768;2024-01-30T08:07:03;13.93;;;7.05;;
71150;SDS011;59071;42.138;24.768;2024-01-30T08:09:29;13.77;;;7.82;;
71150;SDS011;59071;42.138;24.768;2024-01-30T08:11:54;19.75;;;8.43;;
71150;SDS011;59071;42.138;24.768;2024-01-30T08:14:20;21.55;;;9.60;;
71150;SDS011;59071;42.138;24.768;2024-01-30T08:16:45;31.88;;;11.90;;
71150;SDS011;59071;42.138;24.768;2024-01-30T08:19:10;19.98;;;8.40;;
71150;SDS011;59071;42.138;24.768;2024-01-30T08:21:36;24.95;;;9.20;;
71150;SDS011;59071;42.138;24.768;2024-01-30T08:24:04;20.77;;;8.07;;
71150;SDS011;59071;42.138;24.768;2024-01-30T08:26:34;32.70;;;11.82;;
71150;SDS011;59071;42.138;24.768;2024-01-30T08:29:00;35.08;;;12.60;;
71150;SDS011;59071;42.138;24.768;2024-01-30T08:31:26;23.92;;;8.85;;
71150;SDS011;59071;42.138;24.768;2024-01-30T08:33:52;30.60;;;10.18;;
71150;SDS011;59071;42.138;24.768;2024-01-30T08:36:17;39.22;;;11.65;;
71150;SDS011;59071;42.138;24.768;2024-01-30T08:38:43;26.63;;;9.75;;
71150;SDS011;59071;42.138;24.768;2024-01-30T08:41:09;18.90;;;8.25;;
71150;SDS011;59071;42.138;24.768;2024-01-30T08:43:34;28.55;;;10.90;;
71150;SDS011;59071;42.138;24.768;2024-01-30T08:46:01;18.42;;;8.52;;
71150;SDS011;59071;42.138;24.768;2024-01-30T08:48:27;10.73;;;5.85;;
71150;SDS011;59071;42.138;24.768;2024-01-30T08:50:52;9.77;;;5.50;;
71150;SDS011;59071;42.138;24.768;2024-01-30T08:53:18;11.45;;;5.00;;
71150;SDS011;59071;42.138;24.768;2024-01-30T08:55:44;8.43;;;4.93;;
71150;SDS011;59071;42.138;24.768;2024-01-30T08:58:09;8.73;;;5.05;;
71150;SDS011;59071;42.138;24.768;2024-01-30T09:00:35;8.98;;;5.40;;
71150;SDS011;59071;42.138;24.768;2024-01-30T09:03:00;9.63;;;5.28;;
71150;SDS011;59071;42.138;24.768;2024-01-30T09:05:25;11.25;;;5.57;;
71150;SDS011;59071;42.138;24.768;2024-01-30T09:07:51;12.45;;;5.47;;
71150;SDS011;59071;42.138;24.768;2024-01-30T09:10:16;10.10;;;5.30;;
71150;SDS011;59071;42.138;24.768;2024-01-30T09:12:41;11.82;;;5.38;;
71150;SDS011;59071;42.138;24.768;2024-01-30T09:15:07;10.80;;;5.07;;
71150;SDS011;59071;42.138;24.768;2024-01-30T09:17:33;7.90;;;4.70;;
71150;SDS011;59071;42.138;24.768;2024-01-30T09:19:58;7.22;;;4.80;;
71150;SDS011;59071;42.138;24.768;2024-01-30T09:22:24;8.38;;;4.63;;
71150;SDS011;59071;42.138;24.768;2024-01-30T09:24:50;7.82;;;4.50;;
71150;SDS011;59071;42.138;24.768;2024-01-30T09:27:15;11.32;;;4.78;;
71150;SDS011;59071;42.138;24.768;2024-01-30T09:29:40;11.05;;;4.90;;
71150;SDS011;59071;42.138;24.768;2024-01-30T09:32:06;8.30;;;5.07;;
71150;SDS011;59071;42.138;24.768;2024-01-30T09:34:31;9.43;;;4.70;;
71150;SDS011;59071;42.138;24.768;2024-01-30T09:36:58;8.98;;;5.22;;
71150;SDS011;59071;42.138;24.768;2024-01-30T09:39:26;9.75;;;4.88;;
71150;SDS011;59071;42.138;24.768;2024-01-30T09:41:55;12.10;;;6.03;;
71150;SDS011;59071;42.138;24.768;2024-01-30T09:44:40;8.80;;;5.05;;
71150;SDS011;59071;42.138;24.768;2024-01-30T09:47:08;10.98;;;5.28;;
71150;SDS011;59071;42.138;24.768;2024-01-30T09:49:35;10.95;;;5.40;;
71150;SDS011;59071;42.138;24.768;2024-01-30T09:52:01;8.52;;;4.90;;
71150;SDS011;59071;42.138;24.768;2024-01-30T09:54:30;11.10;;;6.00;;
71150;SDS011;59071;42.138;24.768;2024-01-30T09:56:56;9.73;;;5.27;;
71150;SDS011;59071;42.138;24.768;2024-01-30T09:59:22;8.90;;;5.35;;
71150;SDS011;59071;42.138;24.768;2024-01-30T10:01:48;9.50;;;5.00;;
71150;SDS011;59071;42.138;24.768;2024-01-30T10:04:15;14.23;;;4.82;;
71150;SDS011;59071;42.138;24.768;2024-01-30T10:06:40;9.55;;;5.15;;
71150;SDS011;59071;42.138;24.768;2024-01-30T10:09:06;13.27;;;6.43;;
71150;SDS011;59071;42.138;24.768;2024-01-30T10:11:33;13.85;;;6.05;;
71150;SDS011;59071;42.138;24.768;2024-01-30T10:13:59;15.32;;;5.75;;
71150;SDS011;59071;42.138;24.768;2024-01-30T10:16:25;11.10;;;5.68;;
71150;SDS011;59071;42.138;24.768;2024-01-30T10:18:50;12.05;;;6.60;;
71150;SDS011;59071;42.138;24.768;2024-01-30T10:21:16;11.48;;;6.60;;
71150;SDS011;59071;42.138;24.768;2024-01-30T10:23:43;11.35;;;5.93;;
71150;SDS011;59071;42.138;24.768;2024-01-30T10:26:09;11.05;;;5.93;;
71150;SDS011;59071;42.138;24.768;2024-01-30T10:28:35;12.65;;;6.60;;
71150;SDS011;59071;42.138;24.768;2024-01-30T10:31:00;16.75;;;6.38;;
71150;SDS011;59071;42.138;24.768;2024-01-30T10:33:26;11.70;;;6.60;;
71150;SDS011;59071;42.138;24.768;2024-01-30T10:35:54;12.18;;;6.80;;
71150;SDS011;59071;42.138;24.768;2024-01-30T10:38:25;11.55;;;6.70;;
71150;SDS011;59071;42.138;24.768;2024-01-30T10:40:56;9.88;;;6.35;;
71150;SDS011;59071;42.138;24.768;2024-01-30T10:43:22;11.77;;;6.32;;
71150;SDS011;59071;42.138;24.768;2024-01-30T10:45:49;11.23;;;6.72;;
71150;SDS011;59071;42.138;24.768;2024-01-30T10:48:18;9.27;;;5.68;;
71150;SDS011;59071;42.138;24.768;2024-01-30T10:50:46;9.95;;;5.38;;
71150;SDS011;59071;42.138;24.768;2024-01-30T10:53:12;10.80;;;5.97;;
71150;SDS011;59071;42.138;24.768;2024-01-30T10:55:39;10.85;;;6.20;;
71150;SDS011;59071;42.138;24.768;2024-01-30T10:58:05;12.90;;;6.38;;
71150;SDS011;59071;42.138;24.768;2024-01-30T11:00:30;10.43;;;6.38;;
71150;SDS011;59071;42.138;24.768;2024-01-30T11:02:58;11.70;;;6.53;;
71150;SDS011;59071;42.138;24.768;2024-01-30T11:05:24;13.55;;;6.97;;
71150;SDS011;59071;42.138;24.768;2024-01-30T11:07:51;13.73;;;6.28;;
71150;SDS011;59071;42.138;24.768;2024-01-30T11:10:16;11.25;;;5.90;;
71150;SDS011;59071;42.138;24.768;2024-01-30T11:12:42;11.70;;;6.57;;
71150;SDS011;59071;42.138;24.768;2024-01-30T11:15:13;11.45;;;6.18;;
71150;SDS011;59071;42.138;24.768;2024-01-30T11:17:40;13.07;;;5.85;;
71150;SDS011;59071;42.138;24.768;2024-01-30T11:20:10;8.02;;;4.50;;
71150;SDS011;59071;42.138;24.768;2024-01-30T11:22:36;7.90;;;4.65;;
71150;SDS011;59071;42.138;24.768;2024-01-30T11:25:02;8.40;;;4.72;;
71150;SDS011;59071;42.138;24.768;2024-01-30T11:27:28;8.35;;;5.15;;
71150;SDS011;59071;42.138;24.768;2024-01-30T11:30:00;6.97;;;4.57;;
71150;SDS011;59071;42.138;24.768;2024-01-30T11:32:27;8.93;;;4.60;;
71150;SDS011;59071;42.138;24.768;2024-01-30T11:34:53;9.68;;;4.70;;
71150;SDS011;59071;42.138;24.768;2024-01-30T11:37:19;8.70;;;5.10;;
71150;SDS011;59071;42.138;24.768;2024-01-30T11:39:46;7.43;;;4.68;;
71150;SDS011;59071;42.138;24.768;2024-01-30T11:42:13;9.60;;;4.93;;
71150;SDS011;59071;42.138;24.768;2024-01-30T11:44:38;6.53;;;4.38;;
71150;SDS011;59071;42.138;24.768;2024-01-30T11:47:04;8.43;;;4.15;;
71150;SDS011;59071;42.138;24.768;2024-01-30T11:49:29;5.97;;;3.72;;
71150;SDS011;59071;42.138;24.768;2024-01-30T11:51:55;6.72;;;3.35;;
71150;SDS011;59071;42.138;24.768;2024-01-30T11:54:20;5.18;;;3.10;;
71150;SDS011;59071;42.138;24.768;2024-01-30T11:56:45;6.22;;;3.65;;
71150;SDS011;59071;42.138;24.768;2024-01-30T11:59:11;5.10;;;3.30;;
71150;SDS011;59071;42.138;24.768;2024-01-30T12:01:36;4.93;;;3.25;;
71150;SDS011;59071;42.138;24.768;2024-01-30T12:04:02;7.65;;;3.40;;
71150;SDS011;59071;42.138;24.768;2024-01-30T12:06:28;5.28;;;3.30;;
71150;SDS011;59071;42.138;24.768;2024-01-30T12:08:57;5.97;;;3.47;;
71150;SDS011;59071;42.138;24.768;2024-01-30T12:11:29;5.53;;;3.38;;
71150;SDS011;59071;42.138;24.768;2024-01-30T12:13:55;5.45;;;3.28;;
71150;SDS011;59071;42.138;24.768;2024-01-30T12:16:21;5.97;;;3.33;;
71150;SDS011;59071;42.138;24.768;2024-01-30T12:18:47;6.43;;;3.60;;
71150;SDS011;59071;42.138;24.768;2024-01-30T12:21:15;7.47;;;3.67;;
71150;SDS011;59071;42.138;24.768;2024-01-30T12:23:41;6.78;;;4.47;;
71150;SDS011;59071;42.138;24.768;2024-01-30T12:26:08;6.75;;;4.13;;
71150;SDS011;59071;42.138;24.768;2024-01-30T12:28:33;5.55;;;3.60;;
71150;SDS011;59071;42.138;24.768;2024-01-30T12:31:02;6.90;;;4.05;;
71150;SDS011;59071;42.138;24.768;2024-01-30T12:33:28;5.78;;;3.60;;
71150;SDS011;59071;42.138;24.768;2024-01-30T12:35:54;5.88;;;3.97;;
71150;SDS011;59071;42.138;24.768;2024-01-30T12:38:20;6.40;;;3.67;;
71150;SDS011;59071;42.138;24.768;2024-01-30T12:40:45;7.05;;;3.83;;
71150;SDS011;59071;42.138;24.768;2024-01-30T12:43:11;5.32;;;3.47;;
71150;SDS011;59071;42.138;24.768;2024-01-30T12:45:38;6.70;;;3.20;;
71150;SDS011;59071;42.138;24.768;2024-01-30T12:48:04;5.60;;;3.50;;
71150;SDS011;59071;42.138;24.768;2024-01-30T12:50:29;5.63;;;3.50;;
71150;SDS011;59071;42.138;24.768;2024-01-30T12:52:55;6.28;;;3.55;;
71150;SDS011;59071;42.138;24.768;2024-01-30T12:55:21;6.70;;;3.28;;
71150;SDS011;59071;42.138;24.768;2024-01-30T12:57:46;9.63;;;3.80;;
71150;SDS011;59071;42.138;24.768;2024-01-30T13:00:11;9.15;;;3.90;;
71150;SDS011;59071;42.138;24.768;2024-01-30T13:02:37;5.63;;;3.65;;
71150;SDS011;59071;42.138;24.768;2024-01-30T13:05:03;5.25;;;3.10;;
71150;SDS011;59071;42.138;24.768;2024-01-30T13:07:29;16.45;;;8.23;;
71150;SDS011;59071;42.138;24.768;2024-01-30T13:09:54;7.68;;;4.47;;
71150;SDS011;59071;42.138;24.768;2024-01-30T13:12:20;14.02;;;7.68;;
71150;SDS011;59071;42.138;24.768;2024-01-30T13:14:45;5.47;;;3.50;;
71150;SDS011;59071;42.138;24.768;2024-01-30T13:17:10;6.38;;;3.60;;
71150;SDS011;59071;42.138;24.768;2024-01-30T13:19:36;4.97;;;3.17;;
71150;SDS011;59071;42.138;24.768;2024-01-30T13:22:01;6.28;;;3.63;;
71150;SDS011;59071;42.138;24.768;2024-01-30T13:24:27;8.20;;;3.65;;
71150;SDS011;59071;42.138;24.768;2024-01-30T13:26:52;5.45;;;3.53;;
71150;SDS011;59071;42.138;24.768;2024-01-30T13:29:18;6.50;;;3.47;;
71150;SDS011;59071;42.138;24.768;2024-01-30T13:31:44;8.02;;;3.80;;
71150;SDS011;59071;42.138;24.768;2024-01-30T13:34:11;8.35;;;3.60;;
71150;SDS011;59071;42.138;24.768;2024-01-30T13:36:37;7.18;;;4.03;;
71150;SDS011;59071;42.138;24.768;2024-01-30T13:39:03;17.35;;;7.45;;
71150;SDS011;59071;42.138;24.768;2024-01-30T13:41:32;7.70;;;3.90;;
71150;SDS011;59071;42.138;24.768;2024-01-30T13:43:58;8.82;;;4.07;;
71150;SDS011;59071;42.138;24.768;2024-01-30T13:46:24;8.15;;;3.92;;
71150;SDS011;59071;42.138;24.768;2024-01-30T13:48:50;7.22;;;3.80;;
71150;SDS011;59071;42.138;24.768;2024-01-30T13:51:16;7.45;;;4.10;;
71150;SDS011;59071;42.138;24.768;2024-01-30T13:53:42;8.20;;;3.92;;
71150;SDS011;59071;42.138;24.768;2024-01-30T13:56:07;5.20;;;3.58;;
71150;SDS011;59071;42.138;24.768;2024-01-30T13:58:33;7.70;;;3.38;;
71150;SDS011;59071;42.138;24.768;2024-01-30T14:01:01;7.15;;;3.80;;
71150;SDS011;59071;42.138;24.768;2024-01-30T14:03:26;5.88;;;3.80;;
71150;SDS011;59071;42.138;24.768;2024-01-30T14:05:52;5.65;;;3.53;;
71150;SDS011;59071;42.138;24.768;2024-01-30T14:08:17;8.70;;;4.00;;
71150;SDS011;59071;42.138;24.768;2024-01-30T14:10:42;8.18;;;3.50;;
71150;SDS011;59071;42.138;24.768;2024-01-30T14:13:08;7.65;;;4.55;;
71150;SDS011;59071;42.138;24.768;2024-01-30T14:15:34;8.10;;;4.20;;
71150;SDS011;59071;42.138;24.768;2024-01-30T14:17:59;10.88;;;4.97;;